Time;durP1;ratioP1;P1;durP2;ratioP2;P2;SDS_P1;SDS_P2;PMS_P1;PMS_P2;Temp;Humidity;BMP_temperature;BMP_pressure;BME280_temperature;BME280_humidity;BME280_pressure;Samples;Min_cycle;Max_cycle;Signal;HPM_P1;HPM_P2
2022/02/12 00:00:07;;;;;;;2.92;2.72;;;;;;;;;;6125365;23;20017;-83
2022/02/12 00:02:39;;;;;;;4.90;3.47;;;;;;;;;;6126525;23;20017;-83
2022/02/12 00:05:08;;;;;;;2.90;2.70;;;;;;;;;;6152139;23;20025;-83
2022/02/12 00:07:38;;;;;;;2.60;2.45;;;;;;;;;;6182323;23;20025;-82
2022/02/12 00:10:08;;;;;;;3.88;3.53;;;;;;;;;;6161439;23;20013;-83
2022/02/12 00:12:36;;;;;;;5.35;3.35;;;;;;;;;;6154616;23;20056;-83
2022/02/12 00:15:04;;;;;;;2.97;2.78;;;;;;;;;;6149655;23;20013;-83
2022/02/12 00:17:33;;;;;;;13.23;3.40;;;;;;;;;;6187948;23;20013;-83
2022/02/12 00:20:01;;;;;;;3.30;3.00;;;;;;;;;;6150603;23;20033;-83
2022/02/12 00:22:29;;;;;;;2.60;2.50;;;;;;;;;;6161657;23;20013;-83
2022/02/12 00:24:59;;;;;;;3.88;3.47;;;;;;;;;;6140511;23;20032;-83
2022/02/12 00:27:27;;;;;;;3.53;3.22;;;;;;;;;;6185333;23;20021;-83
2022/02/12 00:29:55;;;;;;;5.47;3.05;;;;;;;;;;6125243;23;20353;-86
2022/02/12 00:32:24;;;;;;;5.50;3.10;;;;;;;;;;6150787;23;20024;-86
2022/02/12 00:34:52;;;;;;;8.13;2.92;;;;;;;;;;6126652;23;20728;-86
2022/02/12 00:37:21;;;;;;;3.15;2.95;;;;;;;;;;6126481;23;20039;-85
2022/02/12 00:39:52;;;;;;;2.72;2.30;;;;;;;;;;6125485;23;20025;-87
2022/02/12 00:42:22;;;;;;;4.18;2.53;;;;;;;;;;6126365;23;20032;-83
2022/02/12 00:44:52;;;;;;;3.95;3.55;;;;;;;;;;6149211;23;20021;-85
2022/02/12 00:47:21;;;;;;;3.30;2.83;;;;;;;;;;6126135;23;20037;-86
2022/02/12 00:49:49;;;;;;;3.50;3.20;;;;;;;;;;6187367;23;20013;-85
2022/02/12 00:52:17;;;;;;;2.78;2.58;;;;;;;;;;6155210;23;20361;-86
2022/02/12 00:54:45;;;;;;;2.83;2.63;;;;;;;;;;6126339;23;20040;-85
2022/02/12 00:57:13;;;;;;;4.82;2.97;;;;;;;;;;6150450;23;20356;-86
2022/02/12 00:59:43;;;;;;;3.08;2.83;;;;;;;;;;6183378;23;20025;-86
2022/02/12 01:02:11;;;;;;;4.80;3.67;;;;;;;;;;6187653;23;20432;-85
2022/02/12 01:04:39;;;;;;;4.72;3.53;;;;;;;;;;6125866;23;20025;-86
2022/02/12 01:07:07;;;;;;;4.03;3.72;;;;;;;;;;6125838;23;20017;-86
2022/02/12 01:09:37;;;;;;;4.68;2.60;;;;;;;;;;6176416;23;20448;-86
2022/02/12 01:12:08;;;;;;;2.97;2.75;;;;;;;;;;6155673;23;20025;-86
2022/02/12 01:14:40;;;;;;;2.70;2.60;;;;;;;;;;6176729;23;20021;-86
2022/02/12 01:17:10;;;;;;;3.75;3.47;;;;;;;;;;6126304;23;20495;-85
2022/02/12 01:19:39;;;;;;;3.35;2.55;;;;;;;;;;6184127;23;20025;-86
2022/02/12 01:22:07;;;;;;;3.45;3.25;;;;;;;;;;6160878;23;20017;-87
2022/02/12 01:24:35;;;;;;;8.38;3.90;;;;;;;;;;6153962;23;20029;-86
2022/02/12 01:27:04;;;;;;;7.93;3.28;;;;;;;;;;6125729;23;20021;-86
2022/02/12 01:29:33;;;;;;;3.05;2.80;;;;;;;;;;6124011;23;20401;-85
2022/02/12 01:32:03;;;;;;;3.85;3.28;;;;;;;;;;6125492;23;20040;-86
2022/02/12 01:34:35;;;;;;;10.32;4.07;;;;;;;;;;6150685;23;20032;-85
2022/02/12 01:37:07;;;;;;;5.57;4.45;;;;;;;;;;6151927;23;20033;-86
2022/02/12 01:39:36;;;;;;;4.97;4.53;;;;;;;;;;6183443;23;20366;-86
2022/02/12 01:42:04;;;;;;;4.20;3.88;;;;;;;;;;6160350;23;20337;-76
2022/02/12 01:44:34;;;;;;;10.00;3.67;;;;;;;;;;6179455;23;20484;-76
2022/02/12 01:47:02;;;;;;;5.45;4.95;;;;;;;;;;6185639;23;20016;-77
2022/02/12 01:49:31;;;;;;;4.18;3.80;;;;;;;;;;6186957;23;20017;-77
2022/02/12 01:52:00;;;;;;;3.63;2.65;;;;;;;;;;6184247;23;20036;-76
2022/02/12 01:54:29;;;;;;;3.78;2.83;;;;;;;;;;6151930;23;20031;-86
2022/02/12 01:57:00;;;;;;;4.15;3.85;;;;;;;;;;6154208;23;20029;-86
2022/02/12 01:59:31;;;;;;;9.57;5.22;;;;;;;;;;6151448;23;20028;-86
2022/02/12 02:02:00;;;;;;;4.40;4.10;;;;;;;;;;6163051;23;20013;-86
2022/02/12 02:04:30;;;;;;;4.03;3.63;;;;;;;;;;6151832;23;20140;-86
2022/02/12 02:06:58;;;;;;;3.00;2.80;;;;;;;;;;6189118;23;20252;-86
2022/02/12 02:09:29;;;;;;;4.00;3.65;;;;;;;;;;6150631;23;20353;-85
2022/02/12 02:11:58;;;;;;;3.00;2.80;;;;;;;;;;6157862;23;20055;-85
2022/02/12 02:14:34;;;;;;;2.80;2.60;;;;;;;;;;6127522;23;20017;-82
2022/02/12 02:17:02;;;;;;;4.10;2.80;;;;;;;;;;6180255;23;20025;-82
2022/02/12 02:19:31;;;;;;;3.95;2.40;;;;;;;;;;6151660;23;20017;-82
2022/02/12 02:22:00;;;;;;;3.40;3.20;;;;;;;;;;6188730;23;20652;-82
2022/02/12 02:24:28;;;;;;;3.55;3.22;;;;;;;;;;6181874;23;20651;-82
2022/02/12 02:27:08;;;;;;;5.22;3.10;;;;;;;;;;6103513;23;20017;-82
2022/02/12 02:29:41;;;;;;;2.97;2.80;;;;;;;;;;6112426;23;20025;-82
2022/02/12 02:32:12;;;;;;;2.97;2.83;;;;;;;;;;6157121;23;20029;-82
2022/02/12 02:34:41;;;;;;;;;;;;;;;;;;6128447;23;20868;-82
2022/02/12 02:37:09;;;;;;;4.60;3.47;;;;;;;;;;6151350;23;19916;-82
2022/02/12 02:39:39;;;;;;;4.32;3.70;;;;;;;;;;6159322;23;20428;-82
2022/02/12 02:42:07;;;;;;;3.35;3.15;;;;;;;;;;6188713;23;20020;-85
2022/02/12 02:44:35;;;;;;;2.67;2.47;;;;;;;;;;6126446;23;20024;-84
2022/02/12 02:47:33;;;;;;;5.30;3.25;;;;;;;;;;6187819;23;20740;-85
2022/02/12 02:49:53;;;;;;;3.85;3.05;;;;;;;;;;6179264;23;20314;-84
2022/02/12 02:57:55;;;;;;;2.97;2.60;;;;;;;;;;6187289;23;20028;-84
2022/02/12 03:00:23;;;;;;;3.90;3.65;;;;;;;;;;6154998;23;20028;-84
2022/02/12 03:02:52;;;;;;;3.15;2.90;;;;;;;;;;6188418;23;20021;-84
2022/02/12 03:05:20;;;;;;;4.03;3.83;;;;;;;;;;6151476;23;20040;-84
2022/02/12 03:07:49;;;;;;;5.00;3.15;;;;;;;;;;6157614;23;20024;-85
2022/02/12 03:10:20;;;;;;;6.00;3.40;;;;;;;;;;6161613;23;20017;-84
2022/02/12 03:12:48;;;;;;;4.43;3.47;;;;;;;;;;6180663;23;20028;-84
2022/02/12 03:15:16;;;;;;;5.53;3.83;;;;;;;;;;6160207;23;20468;-84
2022/02/12 03:17:45;;;;;;;4.50;4.03;;;;;;;;;;6188051;23;20028;-84
2022/02/12 03:20:15;;;;;;;3.65;3.17;;;;;;;;;;6156230;23;20025;-84
2022/02/12 03:22:47;;;;;;;5.93;3.75;;;;;;;;;;6178079;23;20017;-84
2022/02/12 03:25:15;;;;;;;5.57;4.55;;;;;;;;;;6178435;23;20032;-84
2022/02/12 03:27:43;;;;;;;7.20;3.10;;;;;;;;;;6158129;23;20041;-84
2022/02/12 03:30:12;;;;;;;3.63;3.33;;;;;;;;;;6187847;23;20017;-85
2022/02/12 03:32:42;;;;;;;3.97;3.67;;;;;;;;;;6155297;23;20037;-84
2022/02/12 03:35:11;;;;;;;3.38;2.78;;;;;;;;;;6182957;23;20021;-84
2022/02/12 03:37:41;;;;;;;2.78;2.58;;;;;;;;;;6152750;23;20028;-84
2022/02/12 03:40:12;;;;;;;4.70;2.55;;;;;;;;;;6156195;23;20032;-84
2022/02/12 03:42:42;;;;;;;4.18;3.97;;;;;;;;;;6161905;23;20044;-85
2022/02/12 03:45:11;;;;;;;7.38;3.38;;;;;;;;;;6151534;23;20021;-84
2022/02/12 03:47:42;;;;;;;8.30;3.97;;;;;;;;;;6102109;23;20448;-84
2022/02/12 03:50:10;;;;;;;5.90;3.67;;;;;;;;;;6162013;23;20017;-85
2022/02/12 03:52:39;;;;;;;6.53;4.03;;;;;;;;;;6177607;23;20036;-84
2022/02/12 03:55:08;;;;;;;2.67;2.47;;;;;;;;;;6186424;23;20024;-84
2022/02/12 03:57:37;;;;;;;2.75;2.55;;;;;;;;;;6151152;23;20028;-84
2022/02/12 04:00:07;;;;;;;4.50;3.67;;;;;;;;;;6125752;23;20033;-85
2022/02/12 04:02:47;;;;;;;3.42;3.13;;;;;;;;;;6162382;23;20021;-84
2022/02/12 04:05:16;;;;;;;5.68;2.97;;;;;;;;;;6150800;23;20116;-84
2022/02/12 04:07:48;;;;;;;4.97;3.97;;;;;;;;;;6150869;23;20036;-84
2022/02/12 04:10:19;;;;;;;16.63;4.53;;;;;;;;;;6127446;23;20013;-84
2022/02/12 04:12:53;;;;;;;5.60;3.45;;;;;;;;;;6179018;23;20472;-84
2022/02/12 04:15:27;;;;;;;5.35;3.60;;;;;;;;;;6185116;23;20032;-84
2022/02/12 04:17:56;;;;;;;4.53;3.42;;;;;;;;;;6102692;23;20021;-84
2022/02/12 04:20:26;;;;;;;3.90;3.33;;;;;;;;;;6130841;23;20036;-84
2022/02/12 04:22:54;;;;;;;6.43;4.22;;;;;;;;;;6160938;23;20016;-84
2022/02/12 04:25:23;;;;;;;5.80;3.35;;;;;;;;;;6125817;23;20365;-85
2022/02/12 04:27:52;;;;;;;12.13;4.40;;;;;;;;;;6125894;23;20021;-84
2022/02/12 04:30:20;;;;;;;3.88;3.58;;;;;;;;;;6160863;23;20017;-84
2022/02/12 04:32:48;;;;;;;5.13;3.80;;;;;;;;;;6179668;23;20029;-84
2022/02/12 04:35:16;;;;;;;6.07;4.80;;;;;;;;;;6111781;23;20193;-84
2022/02/12 04:37:45;;;;;;;3.42;3.13;;;;;;;;;;6097427;23;20029;-84
2022/02/12 04:40:15;;;;;;;4.50;4.18;;;;;;;;;;6096309;23;20036;-84
2022/02/12 04:42:47;;;;;;;4.90;3.97;;;;;;;;;;6121946;23;20013;-84
2022/02/12 04:45:17;;;;;;;15.70;4.13;;;;;;;;;;6120502;23;20029;-84
2022/02/12 04:47:45;;;;;;;6.75;3.22;;;;;;;;;;6153973;23;20025;-84
2022/02/12 04:50:13;;;;;;;5.43;4.95;;;;;;;;;;6157423;23;20436;-84
2022/02/12 04:52:41;;;;;;;3.70;3.40;;;;;;;;;;6121328;23;20022;-84
2022/02/12 04:55:11;;;;;;;6.30;2.95;;;;;;;;;;6156694;23;20025;-84
2022/02/12 04:57:43;;;;;;;4.63;3.55;;;;;;;;;;6147626;23;20025;-84
2022/02/12 05:00:18;;;;;;;3.38;3.05;;;;;;;;;;6146326;23;20393;-83
2022/02/12 05:02:49;;;;;;;9.48;3.63;;;;;;;;;;6157722;23;20766;-84
2022/02/12 05:05:18;;;;;;;4.32;4.00;;;;;;;;;;6147738;23;20026;-83
2022/02/12 05:07:46;;;;;;;3.90;3.47;;;;;;;;;;6153834;23;20017;-83
2022/02/12 05:10:14;;;;;;;8.68;4.60;;;;;;;;;;6157268;23;20018;-83
2022/02/12 05:12:43;;;;;;;5.38;4.68;;;;;;;;;;6124090;23;20049;-83
2022/02/12 05:15:11;;;;;;;4.57;4.07;;;;;;;;;;6155622;23;20021;-83
2022/02/12 05:17:39;;;;;;;6.47;2.92;;;;;;;;;;6131396;23;20018;-83
2022/02/12 05:20:08;;;;;;;4.15;3.78;;;;;;;;;;6120882;23;20029;-84
2022/02/12 05:22:36;;;;;;;5.45;4.40;;;;;;;;;;6157742;23;20028;-83
2022/02/12 05:25:05;;;;;;;5.70;5.20;;;;;;;;;;6123734;23;20023;-84
2022/02/12 05:27:35;;;;;;;4.90;4.32;;;;;;;;;;6123144;23;20025;-83
2022/02/12 05:30:05;;;;;;;4.45;3.28;;;;;;;;;;6159103;23;20449;-84
2022/02/12 05:32:33;;;;;;;5.15;3.85;;;;;;;;;;6126187;23;20495;-83
2022/02/12 05:35:03;;;;;;;5.88;4.30;;;;;;;;;;6122305;23;20021;-84
2022/02/12 05:37:32;;;;;;;4.03;3.40;;;;;;;;;;6099637;23;20449;-84
2022/02/12 05:40:01;;;;;;;6.53;3.95;;;;;;;;;;6098638;23;20025;-84
2022/02/12 05:42:29;;;;;;;6.85;4.00;;;;;;;;;;6133295;23;20013;-83
2022/02/12 05:44:57;;;;;;;7.38;3.85;;;;;;;;;;6149644;23;20032;-83
2022/02/12 05:47:25;;;;;;;4.15;3.78;;;;;;;;;;6131183;23;20452;-83
2022/02/12 05:49:55;;;;;;;5.18;4.43;;;;;;;;;;6159206;23;20032;-83
2022/02/12 05:52:24;;;;;;;6.38;5.05;;;;;;;;;;6127288;23;20025;-83
2022/02/12 05:54:52;;;;;;;6.65;4.10;;;;;;;;;;6158976;23;20618;-83
2022/02/12 05:57:20;;;;;;;4.75;4.15;;;;;;;;;;6149447;23;20036;-83
2022/02/12 05:59:50;;;;;;;7.20;3.67;;;;;;;;;;6154019;23;20026;-84
2022/02/12 06:02:18;;;;;;;3.42;3.22;;;;;;;;;;6159284;23;20021;-84
2022/02/12 06:04:46;;;;;;;4.88;4.43;;;;;;;;;;6151810;23;20022;-83
2022/02/12 06:07:14;;;;;;;5.90;5.38;;;;;;;;;;6157682;23;20018;-83
2022/02/12 06:09:43;;;;;;;3.80;3.42;;;;;;;;;;6158997;23;20021;-83
2022/02/12 06:12:11;;;;;;;4.63;4.22;;;;;;;;;;6153850;23;20457;-83
2022/02/12 06:14:39;;;;;;;4.50;3.40;;;;;;;;;;6158213;23;20025;-83
2022/02/12 06:17:08;;;;;;;6.22;3.95;;;;;;;;;;6148751;23;20029;-84
2022/02/12 06:19:37;;;;;;;6.57;4.18;;;;;;;;;;6156217;23;20405;-84
2022/02/12 06:22:05;;;;;;;3.58;3.28;;;;;;;;;;6158906;23;20021;-83
2022/02/12 06:24:33;;;;;;;5.82;4.38;;;;;;;;;;6151987;23;20508;-83
2022/02/12 06:27:04;;;;;;;3.60;3.28;;;;;;;;;;6158310;23;20014;-83
2022/02/12 06:29:33;;;;;;;4.80;4.30;;;;;;;;;;6148036;23;20018;-83
2022/02/12 06:32:03;;;;;;;9.07;5.97;;;;;;;;;;6154315;23;20032;-83
2022/02/12 06:34:35;;;;;;;8.00;5.80;;;;;;;;;;6153965;23;20025;-83
2022/02/12 06:37:03;;;;;;;3.60;3.38;;;;;;;;;;6151198;23;20029;-84
2022/02/12 06:39:32;;;;;;;5.13;4.70;;;;;;;;;;6159147;23;20021;-83
2022/02/12 06:42:01;;;;;;;4.25;3.92;;;;;;;;;;6163145;23;20028;-84
2022/02/12 06:44:29;;;;;;;4.15;2.90;;;;;;;;;;6154858;23;20029;-83
2022/02/12 06:46:58;;;;;;;5.68;4.93;;;;;;;;;;6127761;23;20067;-83
2022/02/12 06:49:26;;;;;;;4.22;3.75;;;;;;;;;;6150672;23;20032;-84
2022/02/12 06:51:54;;;;;;;5.80;5.30;;;;;;;;;;6127133;23;20524;-84
2022/02/12 06:54:22;;;;;;;4.15;3.75;;;;;;;;;;6162317;23;20065;-83
2022/02/12 06:56:51;;;;;;;7.38;3.83;;;;;;;;;;6154345;23;20033;-84
2022/02/12 06:59:20;;;;;;;11.32;4.20;;;;;;;;;;6176421;23;20033;-84
2022/02/12 07:01:49;;;;;;;4.20;3.75;;;;;;;;;;6162124;23;20017;-84
2022/02/12 07:04:18;;;;;;;9.00;4.22;;;;;;;;;;6182613;23;20025;-84
2022/02/12 07:06:50;;;;;;;5.07;4.75;;;;;;;;;;6188987;23;20020;-83
2022/02/12 07:09:22;;;;;;;11.00;6.78;;;;;;;;;;6177302;23;20032;-78
2022/02/12 07:11:50;;;;;;;4.63;3.53;;;;;;;;;;6184014;23;20461;-84
2022/02/12 07:14:19;;;;;;;6.35;5.75;;;;;;;;;;6187921;23;20591;-83
2022/02/12 07:16:48;;;;;;;6.93;5.25;;;;;;;;;;6178127;23;20061;-83
2022/02/12 07:19:16;;;;;;;5.53;4.82;;;;;;;;;;6160124;23;20013;-84
2022/02/12 07:21:44;;;;;;;9.45;6.97;;;;;;;;;;6151710;23;20044;-85
2022/02/12 07:24:13;;;;;;;7.20;5.50;;;;;;;;;;6151556;23;20021;-84
2022/02/12 07:26:42;;;;;;;7.75;6.53;;;;;;;;;;6151655;23;20437;-84
2022/02/12 07:29:10;;;;;;;9.88;7.45;;;;;;;;;;6178052;23;20025;-84
2022/02/12 07:31:38;;;;;;;8.52;7.82;;;;;;;;;;6185238;23;20021;-84
2022/02/12 07:34:08;;;;;;;12.02;5.65;;;;;;;;;;6162317;23;20532;-84
2022/02/12 07:36:36;;;;;;;8.55;7.18;;;;;;;;;;6096832;23;20021;-84
2022/02/12 07:39:06;;;;;;;6.60;5.60;;;;;;;;;;6121172;23;20018;-84
2022/02/12 07:41:35;;;;;;;8.63;6.47;;;;;;;;;;6132246;23;20029;-84
2022/02/12 07:44:03;;;;;;;9.07;8.05;;;;;;;;;;6096437;23;20034;-85
2022/02/12 07:46:31;;;;;;;10.48;9.48;;;;;;;;;;6158464;23;20020;-85
2022/02/12 07:48:59;;;;;;;7.95;6.50;;;;;;;;;;6120900;23;20025;-85
2022/02/12 07:51:28;;;;;;;7.57;6.28;;;;;;;;;;6096808;23;20649;-84
2022/02/12 07:54:03;;;;;;;7.13;6.45;;;;;;;;;;6097292;23;20030;-85
2022/02/12 07:56:31;;;;;;;10.55;8.35;;;;;;;;;;6150796;23;20457;-86
2022/02/12 07:58:59;;;;;;;7.28;6.13;;;;;;;;;;6121278;23;20632;-85
2022/02/12 08:01:30;;;;;;;8.32;7.50;;;;;;;;;;6121241;23;20025;-85
2022/02/12 08:04:01;;;;;;;7.90;7.30;;;;;;;;;;6147871;23;20342;-85
2022/02/12 08:09:19;;;;;;;13.55;6.95;;;;;;;;;;6096394;23;20021;-82
2022/02/12 08:11:53;;;;;;;6.80;6.10;;;;;;;;;;6127902;23;20029;-81
2022/02/12 08:14:21;;;;;;;10.48;5.88;;;;;;;;;;6156711;23;20025;-82
2022/02/12 08:16:50;;;;;;;6.53;5.22;;;;;;;;;;6123736;23;20028;-86
2022/02/12 08:19:21;;;;;;;7.18;6.20;;;;;;;;;;6145874;23;20017;-86
2022/02/12 08:21:51;;;;;;;7.78;6.43;;;;;;;;;;6158086;23;20037;-86
2022/02/12 08:24:20;;;;;;;15.13;6.47;;;;;;;;;;6150502;23;20674;-86
2022/02/12 08:26:55;;;;;;;10.43;5.45;;;;;;;;;;6146237;23;20739;-86
2022/02/12 08:29:28;;;;;;;12.75;5.45;;;;;;;;;;6120591;23;20026;-85
2022/02/12 08:31:57;;;;;;;6.13;4.80;;;;;;;;;;6152182;23;20029;-85
2022/02/12 08:34:26;;;;;;;5.20;4.72;;;;;;;;;;6158666;23;20026;-86
2022/02/12 08:36:56;;;;;;;8.13;7.47;;;;;;;;;;6179356;23;20029;-85
2022/02/12 08:39:27;;;;;;;6.30;5.13;;;;;;;;;;6184122;23;20025;-86
2022/02/12 08:41:55;;;;;;;4.55;4.18;;;;;;;;;;6151283;23;20021;-85
2022/02/12 08:44:24;;;;;;;4.60;3.83;;;;;;;;;;6134310;23;20029;-86
2022/02/12 08:46:52;;;;;;;12.35;5.15;;;;;;;;;;6126565;23;20040;-86
2022/02/12 08:49:20;;;;;;;6.85;6.20;;;;;;;;;;6125714;23;20025;-85
2022/02/12 08:51:48;;;;;;;7.35;4.60;;;;;;;;;;6183776;23;20044;-85
2022/02/12 08:54:19;;;;;;;5.75;4.95;;;;;;;;;;6187538;23;20444;-85
2022/02/12 08:56:49;;;;;;;9.98;7.03;;;;;;;;;;6179384;23;20792;-86
2022/02/12 08:59:23;;;;;;;5.55;5.03;;;;;;;;;;6147862;23;20020;-86
2022/02/12 09:02:12;;;;;;;4.15;3.75;;;;;;;;;;6177521;23;20447;-85
2022/02/12 09:04:42;;;;;;;3.15;2.75;;;;;;;;;;6138634;23;20041;-84
2022/02/12 09:07:12;;;;;;;7.05;4.20;;;;;;;;;;6186172;23;20016;-84
2022/02/12 09:09:42;;;;;;;3.05;2.75;;;;;;;;;;6160123;23;20013;-84
2022/02/12 09:12:11;;;;;;;4.72;2.90;;;;;;;;;;6155534;23;20036;-84
2022/02/12 09:14:39;;;;;;;4.22;3.80;;;;;;;;;;6186948;23;20017;-84
2022/02/12 09:17:09;;;;;;;4.57;3.70;;;;;;;;;;6152361;23;20032;-85
2022/02/12 09:19:41;;;;;;;3.33;3.05;;;;;;;;;;6150373;23;20017;-81
2022/02/12 09:22:10;;;;;;;1.92;1.83;;;;;;;;;;6186932;23;20027;-81
2022/02/12 09:24:38;;;;;;;5.72;2.90;;;;;;;;;;6179968;23;20029;-83
2022/02/12 09:27:08;;;;;;;11.27;5.25;;;;;;;;;;6186207;23;20024;-83
2022/02/12 09:29:39;;;;;;;2.90;2.35;;;;;;;;;;6186501;23;20377;-85
2022/02/12 09:32:16;;;;;;;2.05;1.83;;;;;;;;;;6181634;23;20036;-88
2022/02/12 09:34:44;;;;;;;1.33;1.10;;;;;;;;;;6184714;23;20013;-84
2022/02/12 09:37:15;;;;;;;12.35;3.30;;;;;;;;;;6152047;23;20052;-82
2022/02/12 09:39:44;;;;;;;4.30;3.33;;;;;;;;;;6182832;23;20024;-81
2022/02/12 09:42:14;;;;;;;2.25;2.15;;;;;;;;;;6187077;23;20024;-81
2022/02/12 09:44:46;;;;;;;3.50;3.08;;;;;;;;;;6149045;23;20025;-80
2022/02/12 09:47:21;;;;;;;2.28;2.03;;;;;;;;;;6185378;23;20017;-81
2022/02/12 09:49:49;;;;;;;3.53;3.22;;;;;;;;;;6161058;23;20013;-80
2022/02/12 09:52:18;;;;;;;2.50;2.30;;;;;;;;;;6180666;23;20405;-81
2022/02/12 09:54:47;;;;;;;4.07;3.75;;;;;;;;;;6186484;23;20017;-80
2022/02/12 09:57:15;;;;;;;2.40;2.20;;;;;;;;;;6176982;23;20028;-81
2022/02/12 09:59:44;;;;;;;3.47;2.55;;;;;;;;;;6182329;23;20021;-82
2022/02/12 10:02:19;;;;;;;4.97;4.47;;;;;;;;;;6177124;23;20504;-81
2022/02/12 10:04:47;;;;;;;2.25;2.05;;;;;;;;;;6178587;23;20028;-80
2022/02/12 10:07:22;;;;;;;4.28;2.50;;;;;;;;;;6185615;23;20017;-80
2022/02/12 10:10:11;;;;;;;3.35;2.88;;;;;;;;;;6176441;23;20020;-80
2022/02/12 10:12:39;;;;;;;3.40;2.10;;;;;;;;;;6180722;23;20032;-80
2022/02/12 10:15:29;;;;;;;7.18;3.78;;;;;;;;;;6187261;23;20013;-83
2022/02/12 10:18:00;;;;;;;6.72;5.10;;;;;;;;;;6141252;23;20017;-81
2022/02/12 10:20:32;;;;;;;;;;;;;;;;;;6156738;23;20022;-80
2022/02/12 10:23:10;;;;;;;2.75;2.35;;;;;;;;;;6162689;23;19927;-82
2022/02/12 10:25:39;;;;;;;2.20;2.08;;;;;;;;;;6150726;23;20017;-79
2022/02/12 10:28:08;;;;;;;2.15;2.00;;;;;;;;;;6182934;23;20031;-79
2022/02/12 10:30:36;;;;;;;3.15;2.15;;;;;;;;;;6187735;23;20024;-82
2022/02/12 10:33:06;;;;;;;3.03;2.83;;;;;;;;;;6179649;23;20028;-80
2022/02/12 10:35:35;;;;;;;2.22;2.05;;;;;;;;;;6133917;23;20037;-82
2022/02/12 10:38:16;;;;;;;1.52;1.02;;;;;;;;;;6158148;23;20025;-82
2022/02/12 10:41:03;;;;;;;3.75;3.50;;;;;;;;;;6125170;23;20032;-81
2022/02/12 10:43:32;;;;;;;3.30;2.20;;;;;;;;;;6128941;23;20486;-81
2022/02/12 10:46:02;;;;;;;1.30;1.30;;;;;;;;;;6099872;23;20017;-86
2022/02/12 10:48:35;;;;;;;2.88;2.67;;;;;;;;;;6124359;23;20030;-85
2022/02/12 10:51:07;;;;;;;2.50;2.30;;;;;;;;;;6103769;23;20363;-84
2022/02/12 10:53:36;;;;;;;2.13;2.03;;;;;;;;;;6104979;23;20021;-82
2022/02/12 10:56:06;;;;;;;5.15;1.98;;;;;;;;;;6100894;23;20025;-82
2022/02/12 10:58:36;;;;;;;3.67;2.13;;;;;;;;;;6124932;23;20022;-81
2022/02/12 11:01:05;;;;;;;4.95;2.85;;;;;;;;;;6123659;23;20036;-83
2022/02/12 11:03:34;;;;;;;2.88;1.75;;;;;;;;;;6131145;23;20025;-79
2022/02/12 11:06:04;;;;;;;5.05;3.47;;;;;;;;;;6098374;23;20028;-79
2022/02/12 11:08:34;;;;;;;5.45;4.38;;;;;;;;;;6097748;23;20743;-78
2022/02/12 11:11:04;;;;;;;2.17;1.80;;;;;;;;;;6158192;23;20025;-83
2022/02/12 11:13:56;;;;;;;8.30;2.72;;;;;;;;;;6120384;23;20476;-83
2022/02/12 11:16:36;;;;;;;2.85;2.67;;;;;;;;;;6125256;23;20029;-80
2022/02/12 11:19:05;;;;;;;2.58;1.90;;;;;;;;;;6131562;23;20346;-81
2022/02/12 11:21:37;;;;;;;2.28;2.17;;;;;;;;;;6155336;23;20335;-81
2022/02/12 11:24:07;;;;;;;2.13;2.03;;;;;;;;;;6152879;23;20237;-82
2022/02/12 11:26:39;;;;;;;2.45;2.30;;;;;;;;;;6132278;23;20021;-82
2022/02/12 11:29:08;;;;;;;;;;;;;;;;;;6120545;23;20021;-83
2022/02/12 11:31:37;;;;;;;3.30;3.00;;;;;;;;;;6129946;23;19932;-84
2022/02/12 11:34:19;;;;;;;4.60;4.22;;;;;;;;;;6132927;23;20021;-82
2022/02/12 11:37:13;;;;;;;3.28;3.08;;;;;;;;;;6075793;23;20029;-83
2022/02/12 11:40:07;;;;;;;2.03;1.92;;;;;;;;;;6122683;23;20445;-83
2022/02/12 11:42:44;;;;;;;4.55;3.78;;;;;;;;;;6132545;23;20032;-83
2022/02/12 11:45:25;;;;;;;2.63;2.20;;;;;;;;;;6148123;23;20025;-83
2022/02/12 11:48:12;;;;;;;5.13;3.88;;;;;;;;;;6154219;23;20033;-82
2022/02/12 11:50:50;;;;;;;4.30;2.92;;;;;;;;;;6158424;23;20024;-83
2022/02/12 11:53:35;;;;;;;5.20;2.95;;;;;;;;;;6147495;23;20021;-82
2022/02/12 11:56:09;;;;;;;4.63;4.25;;;;;;;;;;6148303;23;20041;-83
2022/02/12 11:58:38;;;;;;;;;;;;;;;;;;6096909;23;20025;-83
2022/02/12 12:01:07;;;;;;;2.67;2.47;;;;;;;;;;6148953;23;19924;-83
2022/02/12 12:03:56;;;;;;;11.43;2.85;;;;;;;;;;6096103;23;20034;-82
2022/02/12 12:06:25;;;;;;;7.53;2.58;;;;;;;;;;6121920;23;20033;-82
2022/02/12 12:09:04;;;;;;;3.63;2.60;;;;;;;;;;6097005;23;20022;-84
2022/02/12 12:11:35;;;;;;;5.75;4.93;;;;;;;;;;6096887;23;20028;-84
2022/02/12 12:14:26;;;;;;;3.33;2.58;;;;;;;;;;6097495;23;20032;-84
2022/02/12 12:17:02;;;;;;;6.20;4.38;;;;;;;;;;6097297;23;20030;-84
2022/02/12 12:19:38;;;;;;;2.30;2.10;;;;;;;;;;6096555;23;20029;-83
2022/02/12 12:22:15;;;;;;;2.97;2.78;;;;;;;;;;6097181;23;20026;-83
2022/02/12 12:24:44;;;;;;;3.60;3.33;;;;;;;;;;6096702;23;20025;-82
2022/02/12 12:27:17;;;;;;;2.92;2.53;;;;;;;;;;6131306;23;20759;-82
2022/02/12 12:32:34;;;;;;;2.10;2.00;;;;;;;;;;6152675;23;20333;-82
2022/02/12 12:35:07;;;;;;;2.92;2.72;;;;;;;;;;6131085;23;20452;-82
2022/02/12 12:37:49;;;;;;;6.32;2.58;;;;;;;;;;6162740;23;20028;-82
2022/02/12 12:40:18;;;;;;;;;;;;;;;;;;6151599;23;20471;-82
2022/02/12 12:42:57;;;;;;;3.13;2.72;;;;;;;;;;6162254;23;19969;-83
2022/02/12 12:45:26;;;;;;;2.67;1.90;;;;;;;;;;6152056;23;20025;-83
2022/02/12 12:47:56;;;;;;;8.65;2.63;;;;;;;;;;6151680;23;20056;-84
2022/02/12 12:50:26;;;;;;;2.30;2.20;;;;;;;;;;6104132;23;20028;-84
2022/02/12 12:53:01;;;;;;;3.85;2.42;;;;;;;;;;6127116;23;20029;-84
2022/02/12 12:55:30;;;;;;;1.55;1.45;;;;;;;;;;6126653;23;20025;-83
2022/02/12 12:58:00;;;;;;;2.13;1.92;;;;;;;;;;6161018;23;20020;-84
2022/02/12 13:00:36;;;;;;;2.50;2.30;;;;;;;;;;6126306;23;20028;-84
2022/02/12 13:03:04;;;;;;;3.63;3.33;;;;;;;;;;6163070;23;20689;-84
2022/02/12 13:05:33;;;;;;;5.55;3.75;;;;;;;;;;6163480;23;20009;-84
2022/02/12 13:08:04;;;;;;;9.90;3.50;;;;;;;;;;6102208;23;20029;-86
2022/02/12 13:10:33;;;;;;;3.97;3.53;;;;;;;;;;6126718;23;20025;-83
2022/02/12 13:13:19;;;;;;;2.90;2.65;;;;;;;;;;6103264;23;20029;-83
2022/02/12 13:15:47;;;;;;;3.15;2.65;;;;;;;;;;6126109;23;20021;-84
2022/02/12 13:18:16;;;;;;;2.75;2.55;;;;;;;;;;6162968;23;20028;-84
2022/02/12 13:20:46;;;;;;;3.47;2.20;;;;;;;;;;6130270;23;20036;-84
2022/02/12 13:23:17;;;;;;;2.33;2.13;;;;;;;;;;6187841;23;20013;-84
2022/02/12 13:25:47;;;;;;;5.90;3.03;;;;;;;;;;6162459;23;20042;-84
2022/02/12 13:28:17;;;;;;;3.17;2.17;;;;;;;;;;6183427;23;20385;-84
2022/02/12 13:30:45;;;;;;;2.08;1.98;;;;;;;;;;6188787;23;20021;-84
2022/02/12 13:33:21;;;;;;;2.33;2.15;;;;;;;;;;6180116;23;20107;-84
2022/02/12 13:35:51;;;;;;;7.32;2.28;;;;;;;;;;6184075;23;20646;-84
2022/02/12 13:38:20;;;;;;;1.40;1.40;;;;;;;;;;6189787;23;20013;-82
2022/02/12 13:40:54;;;;;;;3.33;3.05;;;;;;;;;;6154809;23;20025;-84
2022/02/12 13:43:28;;;;;;;2.90;2.75;;;;;;;;;;6185782;23;20032;-84
2022/02/12 13:46:01;;;;;;;1.42;1.35;;;;;;;;;;6128556;23;20013;-87
2022/02/12 13:48:42;;;;;;;4.10;2.65;;;;;;;;;;6123901;23;20326;-85
2022/02/12 13:51:25;;;;;;;1.90;1.80;;;;;;;;;;6165756;23;20040;-85
2022/02/12 13:53:54;;;;;;;3.50;3.30;;;;;;;;;;6192665;23;20020;-86
2022/02/12 13:56:51;;;;;;;1.73;1.63;;;;;;;;;;6131392;23;20765;-85
2022/02/12 13:59:21;;;;;;;3.15;2.72;;;;;;;;;;6189654;23;20021;-84
2022/02/12 14:01:50;;;;;;;3.53;2.72;;;;;;;;;;6191766;23;20013;-83
2022/02/12 14:04:28;;;;;;;3.58;2.75;;;;;;;;;;6187634;23;20028;-85
2022/02/12 14:06:57;;;;;;;4.45;3.92;;;;;;;;;;6157001;23;20021;-86
2022/02/12 14:09:26;;;;;;;2.88;2.42;;;;;;;;;;6153651;23;20028;-82
2022/02/12 14:11:54;;;;;;;2.75;2.17;;;;;;;;;;6160770;23;20487;-82
2022/02/12 14:14:22;;;;;;;4.93;2.58;;;;;;;;;;6164234;23;20037;-82
2022/02/12 14:16:50;;;;;;;2.50;1.90;;;;;;;;;;6182396;23;20040;-82
2022/02/12 14:19:20;;;;;;;1.52;1.42;;;;;;;;;;6189153;23;20022;-82
2022/02/12 14:21:53;;;;;;;1.63;1.52;;;;;;;;;;6166956;23;20016;-82
2022/02/12 14:24:22;;;;;;;4.57;3.83;;;;;;;;;;6155378;23;20029;-83
2022/02/12 14:26:55;;;;;;;4.03;3.75;;;;;;;;;;6156705;23;20032;-83
2022/02/12 14:29:23;;;;;;;2.72;2.53;;;;;;;;;;6152662;23;20032;-83
2022/02/12 14:31:52;;;;;;;2.60;2.40;;;;;;;;;;6128486;23;20020;-83
2022/02/12 14:34:21;;;;;;;2.17;1.60;;;;;;;;;;6191758;23;20013;-83
2022/02/12 14:36:52;;;;;;;7.93;5.25;;;;;;;;;;6181862;23;20039;-83
2022/02/12 14:39:20;;;;;;;;;;;;;;;;;;6153365;23;20441;-82
2022/02/12 14:41:48;;;;;;;3.40;2.30;;;;;;;;;;6105317;23;19924;-83
2022/02/12 14:44:17;;;;;;;2.30;2.10;;;;;;;;;;6157679;23;20029;-83
2022/02/12 14:46:45;;;;;;;6.20;2.45;;;;;;;;;;6130455;23;20017;-83
2022/02/12 14:49:13;;;;;;;2.80;2.60;;;;;;;;;;6148507;23;20450;-83
2022/02/12 14:51:42;;;;;;;2.17;2.08;;;;;;;;;;6147350;23;20026;-82
2022/02/12 14:54:10;;;;;;;1.83;1.73;;;;;;;;;;6180993;23;20014;-83
2022/02/12 14:56:39;;;;;;;5.07;4.55;;;;;;;;;;6149607;23;20030;-84
2022/02/12 14:59:12;;;;;;;5.47;2.85;;;;;;;;;;6123292;23;20457;-84
2022/02/12 15:01:40;;;;;;;2.63;2.38;;;;;;;;;;6183101;23;20018;-84
2022/02/12 15:04:09;;;;;;;3.22;3.03;;;;;;;;;;6154599;23;20033;-84
2022/02/12 15:06:39;;;;;;;2.90;2.65;;;;;;;;;;6150367;23;20341;-83
2022/02/12 15:09:07;;;;;;;4.07;3.47;;;;;;;;;;6172680;23;20026;-82
2022/02/12 15:11:35;;;;;;;2.65;2.50;;;;;;;;;;6156764;23;20354;-83
2022/02/12 15:14:06;;;;;;;3.50;2.78;;;;;;;;;;6157405;23;20030;-82